createdAt,value
2023-05-12T00:07:47.899Z,72.41
2023-05-12T00:13:09.286Z,72.18
2023-05-12T00:18:30.062Z,72.45
2023-05-12T00:23:50.452Z,72.34
2023-05-12T00:29:10.925Z,72.13
2023-05-12T00:34:31.351Z,72.04
2023-05-12T00:39:51.754Z,72.19
2023-05-12T00:45:12.721Z,72.10
2023-05-12T00:50:34.275Z,72.06
2023-05-12T00:55:55.565Z,71.86
2023-05-12T01:01:16.588Z,71.92
2023-05-12T01:06:45.235Z,71.85
2023-05-12T01:12:05.644Z,71.84
2023-05-12T01:17:32.309Z,71.84
2023-05-12T01:22:55.151Z,71.61
2023-05-12T01:28:17.195Z,71.77
2023-05-12T01:33:38.550Z,71.55
2023-05-12T01:38:59.540Z,71.57
2023-05-12T01:44:21.544Z,71.47
2023-05-12T01:49:42.408Z,71.36
2023-05-12T01:55:08.147Z,71.36
2023-05-12T02:00:36.203Z,71.34
2023-05-12T02:05:57.829Z,71.20
2023-05-12T02:11:18.686Z,71.14
2023-05-12T02:16:39.316Z,71.14
2023-05-12T02:22:00.690Z,70.96
2023-05-12T02:27:21.469Z,71.12
2023-05-12T02:32:42.191Z,71.06
2023-05-12T02:38:02.690Z,71.11
2023-05-12T02:43:23.303Z,70.88
2023-05-12T02:48:43.930Z,70.76
2023-05-12T02:54:04.734Z,70.80
2023-05-12T02:59:25.054Z,70.72
2023-05-12T03:04:45.378Z,70.67
2023-05-12T03:10:06.579Z,70.67
2023-05-12T03:15:26.788Z,70.61
2023-05-12T03:20:47.436Z,70.39
2023-05-12T03:26:07.663Z,70.51
2023-05-12T03:31:28.915Z,70.43
2023-05-12T03:36:50.372Z,70.31
2023-05-12T03:42:10.918Z,70.31
2023-05-12T03:47:31.484Z,70.30
2023-05-12T03:52:55.858Z,70.52
2023-05-12T03:58:16.254Z,70.28
2023-05-12T04:03:37.188Z,70.30
2023-05-12T04:08:57.725Z,70.19
2023-05-12T04:14:18.193Z,70.01
2023-05-12T04:19:38.753Z,69.99
2023-05-12T04:24:59.267Z,69.86
2023-05-12T04:30:19.871Z,69.72
2023-05-12T04:35:40.739Z,69.90
2023-05-12T04:41:02.416Z,69.84
2023-05-12T04:46:23.028Z,69.75
2023-05-12T04:51:44.504Z,69.76
2023-05-12T04:57:05.314Z,69.66
2023-05-12T05:02:27.914Z,69.62
2023-05-12T05:07:48.787Z,69.60
2023-05-12T05:13:09.377Z,69.77
2023-05-12T05:18:29.938Z,69.72
2023-05-12T05:23:51.182Z,69.76
2023-05-12T05:29:11.946Z,69.70
2023-05-12T05:34:32.811Z,69.82
2023-05-12T05:39:54.010Z,69.55
2023-05-12T05:45:14.997Z,69.57
2023-05-12T05:50:36.012Z,69.59
2023-05-12T05:55:57.854Z,69.52
2023-05-12T06:01:18.616Z,69.64
2023-05-12T06:06:39.644Z,69.51
2023-05-12T06:12:00.065Z,69.67
2023-05-12T06:17:20.899Z,69.56
2023-05-12T06:22:44.370Z,69.56
2023-05-12T06:28:04.955Z,69.33
2023-05-12T06:33:25.601Z,69.38
2023-05-12T06:38:46.369Z,69.30
2023-05-12T06:44:07.733Z,69.10
2023-05-12T06:49:28.596Z,69.10
2023-05-12T06:54:48.885Z,68.76
2023-05-12T07:00:10.632Z,68.92
2023-05-12T07:05:31.406Z,68.46
2023-05-12T07:10:52.065Z,68.46
2023-05-12T07:16:12.980Z,68.42
2023-05-12T07:21:33.334Z,68.16
2023-05-12T07:26:53.961Z,67.88
2023-05-12T07:32:14.640Z,67.64
2023-05-12T07:37:35.582Z,67.86
2023-05-12T07:42:55.865Z,67.63
2023-05-12T07:48:16.210Z,67.46
2023-05-12T07:53:36.749Z,67.26
2023-05-12T07:58:57.221Z,66.99
2023-05-12T08:04:17.884Z,66.52
2023-05-12T08:09:38.377Z,66.20
2023-05-12T08:14:59.595Z,66.04
2023-05-12T08:20:20.330Z,65.77
2023-05-12T08:25:41.711Z,65.38
2023-05-12T08:31:04.835Z,65.08
2023-05-12T08:36:25.957Z,64.79
2023-05-12T08:42:27.152Z,64.02
2023-05-12T08:47:47.538Z,63.52
2023-05-12T08:53:12.111Z,63.31
2023-05-12T08:58:41.019Z,62.82
2023-05-12T09:04:02.871Z,61.88
2023-05-12T09:09:26.989Z,61.74
2023-05-12T09:15:07.933Z,61.25
2023-05-12T09:20:31.830Z,60.88
2023-05-12T09:26:02.539Z,60.60
2023-05-12T09:31:24.822Z,60.17
2023-05-12T09:36:54.887Z,59.89
2023-05-12T09:42:16.261Z,59.15
2023-05-12T09:47:39.470Z,58.38
2023-05-12T09:52:59.983Z,57.62
2023-05-12T09:58:20.934Z,56.57
2023-05-12T10:03:42.701Z,55.79
2023-05-12T10:09:13.588Z,55.35
2023-05-12T10:14:35.733Z,54.78
2023-05-12T10:19:57.120Z,53.89
2023-05-12T10:25:18.378Z,52.69
2023-05-12T10:30:39.792Z,51.18
2023-05-12T10:36:00.240Z,50.01
2023-05-12T10:41:31.558Z,47.61
2023-05-12T10:46:59.048Z,45.05
2023-05-12T10:52:20.140Z,43.18
2023-05-12T10:57:50.669Z,41.92
2023-05-12T11:03:17.378Z,41.23
2023-05-12T11:08:39.957Z,41.29
2023-05-12T11:14:01.155Z,40.62
2023-05-12T11:19:21.708Z,39.96
2023-05-12T11:24:42.598Z,39.99
2023-05-12T11:30:04.315Z,38.98
2023-05-12T11:35:30.768Z,37.70
2023-05-12T11:40:51.481Z,37.30
2023-05-12T11:46:12.306Z,36.39
2023-05-12T11:51:34.575Z,35.50
2023-05-12T11:56:56.907Z,35.12
2023-05-12T12:02:21.564Z,34.33
2023-05-12T12:07:42.397Z,33.51
2023-05-12T12:13:02.797Z,32.27
2023-05-12T12:18:23.276Z,31.30
2023-05-12T12:23:50.904Z,30.71
2023-05-12T12:29:12.204Z,29.79
2023-05-12T12:34:33.365Z,29.39
2023-05-12T12:39:54.264Z,29.26
2023-05-12T12:45:15.079Z,28.42
2023-05-12T12:50:36.670Z,28.62
2023-05-12T12:55:57.303Z,28.21
2023-05-12T13:01:18.828Z,27.62
2023-05-12T13:06:39.232Z,27.35
2023-05-12T13:12:00.958Z,27.47
2023-05-12T13:17:21.279Z,27.04
2023-05-12T13:22:43.194Z,27.65
2023-05-12T13:28:03.855Z,27.51
2023-05-12T13:33:24.368Z,27.02
2023-05-12T13:38:45.737Z,27.13
2023-05-12T13:44:06.358Z,27.05
2023-05-12T13:49:26.841Z,26.81
2023-05-12T13:54:47.347Z,26.88
2023-05-12T14:00:08.667Z,26.46
2023-05-12T14:05:38.283Z,26.68
2023-05-12T14:10:58.724Z,26.35
2023-05-12T14:16:19.248Z,26.13
2023-05-12T14:21:41.147Z,25.99
2023-05-12T14:27:02.025Z,25.66
2023-05-12T14:32:22.918Z,25.17
2023-05-12T14:37:43.595Z,24.97
2023-05-12T14:43:04.235Z,25.06
2023-05-12T14:48:28.054Z,24.83
2023-05-12T14:53:48.912Z,24.53
2023-05-12T14:59:10.492Z,24.27
2023-05-12T15:04:31.484Z,24.63
2023-05-12T15:09:52.152Z,24.57
2023-05-12T15:15:12.561Z,24.40
2023-05-12T15:20:33.204Z,24.43
2023-05-12T15:25:53.802Z,24.36
2023-05-12T15:31:14.521Z,23.99
2023-05-12T15:36:35.136Z,22.80
2023-05-12T15:41:55.784Z,21.67
2023-05-12T15:47:16.138Z,20.53
2023-05-12T15:52:36.706Z,19.83
2023-05-12T15:57:57.361Z,19.45
2023-05-12T16:03:18.607Z,18.64
2023-05-12T16:08:39.631Z,17.94
2023-05-12T16:14:02.675Z,18.15
2023-05-12T16:19:23.305Z,18.15
2023-05-12T16:24:43.851Z,19.30
2023-05-12T16:30:05.446Z,20.99
2023-05-12T16:35:25.792Z,23.19
2023-05-12T16:40:46.819Z,23.73
2023-05-12T16:46:07.410Z,23.73
2023-05-12T16:51:32.903Z,24.49
2023-05-12T16:56:54.022Z,25.17
2023-05-12T17:02:14.554Z,25.76
2023-05-12T17:07:35.615Z,25.76
2023-05-12T17:12:56.060Z,26.17
2023-05-12T17:18:16.512Z,26.68
2023-05-12T17:23:37.761Z,26.28
2023-05-12T17:28:58.348Z,26.27
2023-05-12T17:34:18.847Z,26.78
2023-05-12T17:39:41.977Z,27.48
2023-05-12T17:45:02.462Z,27.53
2023-05-12T17:50:22.980Z,28.21
2023-05-12T17:55:43.744Z,28.96
2023-05-12T18:01:04.626Z,29.30
2023-05-12T18:06:25.282Z,29.92
2023-05-12T18:11:50.013Z,30.56
2023-05-12T18:17:11.748Z,30.93
2023-05-12T18:22:31.978Z,31.01
2023-05-12T18:27:52.731Z,32.01
2023-05-12T18:33:13.440Z,32.41
2023-05-12T18:38:34.365Z,32.91
2023-05-12T18:43:54.840Z,33.53
2023-05-12T18:49:15.457Z,34.16
2023-05-12T18:54:36.422Z,34.28
2023-05-12T18:59:56.871Z,34.70
2023-05-12T19:05:17.801Z,35.13
2023-05-12T19:10:40.011Z,35.29
2023-05-12T19:16:00.728Z,35.53
2023-05-12T19:21:21.215Z,36.06
2023-05-12T19:26:41.910Z,36.16
2023-05-12T19:32:03.559Z,36.62
2023-05-12T19:37:23.997Z,37.03
2023-05-12T19:42:44.518Z,37.41
2023-05-12T19:48:05.567Z,37.95
2023-05-12T19:53:26.701Z,38.08
2023-05-12T19:58:47.889Z,38.30
2023-05-12T20:04:08.762Z,38.83
2023-05-12T20:09:29.323Z,39.32
2023-05-12T20:14:49.928Z,39.48
2023-05-12T20:20:11.461Z,39.44
2023-05-12T20:25:33.076Z,39.54
2023-05-12T20:30:53.545Z,39.79
2023-05-12T20:36:14.991Z,40.06
2023-05-12T20:41:36.418Z,40.22
2023-05-12T20:46:56.889Z,40.07
2023-05-12T20:52:17.478Z,40.16
2023-05-12T20:57:39.955Z,40.24
2023-05-12T21:03:02.736Z,40.29
2023-05-12T21:08:23.105Z,40.16
2023-05-12T21:13:46.948Z,40.62
2023-05-12T21:19:07.580Z,40.77
2023-05-12T21:24:28.473Z,41.06
2023-05-12T21:29:49.054Z,41.47
2023-05-12T21:35:09.803Z,41.87
2023-05-12T21:40:31.645Z,42.41
2023-05-12T21:45:52.534Z,42.80
2023-05-12T21:51:13.167Z,43.19
2023-05-12T21:56:34.309Z,43.13
2023-05-12T22:01:55.868Z,43.39
2023-05-12T22:07:16.335Z,43.63
2023-05-12T22:12:37.894Z,43.87
2023-05-12T22:17:58.563Z,44.10
2023-05-12T22:23:19.356Z,44.38
2023-05-12T22:28:39.945Z,44.65
2023-05-12T22:34:00.352Z,44.93
2023-05-12T22:39:20.901Z,45.17
2023-05-12T22:44:41.785Z,45.44
2023-05-12T22:50:02.517Z,45.45
2023-05-12T22:55:30.525Z,45.70
2023-05-12T23:00:51.373Z,45.83
2023-05-12T23:06:11.839Z,46.07
2023-05-12T23:11:32.425Z,46.28
2023-05-12T23:16:53.229Z,46.34
2023-05-12T23:22:13.418Z,46.45
2023-05-12T23:27:34.158Z,46.68
2023-05-12T23:32:54.815Z,46.75
2023-05-12T23:38:15.488Z,46.99
2023-05-12T23:43:36.020Z,47.23
2023-05-12T23:48:56.581Z,47.43
2023-05-12T23:54:16.858Z,47.65
2023-05-12T23:59:37.519Z,47.71
